Time;durP1;ratioP1;P1;durP2;ratioP2;P2;SDS_P1;SDS_P2;PMS_P1;PMS_P2;Temp;Humidity;BMP_temperature;BMP_pressure;BME280_temperature;BME280_humidity;BME280_pressure;Samples;Min_cycle;Max_cycle;Signal;HPM_P1;HPM_P2
2022/09/01 00:02:59;;;;;;;0.88;0.30;;;;;;;18.37;56.98;99844.38;6320353;28;20126;-72
2022/09/01 00:06:00;;;;;;;0.10;0.10;;;;;;;18.27;56.80;99839.16;6319055;28;20036;-73
2022/09/01 00:09:04;;;;;;;0.57;0.57;;;;;;;18.30;57.44;99854.72;6320358;28;20044;-71
2022/09/01 00:12:08;;;;;;;0.28;0.20;;;;;;;18.22;57.25;99846.72;6320273;28;20124;-71
2022/09/01 00:15:10;;;;;;;0.38;0.30;;;;;;;18.23;56.93;99837.78;6320147;28;20048;-72
2022/09/01 00:18:11;;;;;;;0.70;0.40;;;;;;;18.25;57.08;99837.66;6318841;28;20062;-72
2022/09/01 00:21:12;;;;;;;0.50;0.28;;;;;;;18.24;57.32;99833.34;6320146;28;20040;-72
2022/09/01 00:24:16;;;;;;;0.45;0.40;;;;;;;18.26;58.09;99839.28;6319194;28;20040;-73
2022/09/01 00:27:17;;;;;;;0.35;0.10;;;;;;;18.21;56.58;99836.28;6318853;28;20066;-73
2022/09/01 00:30:18;;;;;;;0.28;0.10;;;;;;;18.25;56.60;99838.47;6318804;28;20476;-72
2022/09/01 00:33:19;;;;;;;0.55;0.30;;;;;;;18.17;56.79;99842.84;6318755;28;20468;-72
2022/09/01 00:36:21;;;;;;;0.10;0.10;;;;;;;18.18;56.52;99837.41;6319981;28;20047;-72
2022/09/01 00:39:22;;;;;;;0.10;0.10;;;;;;;18.18;56.35;99842.69;6318857;28;20122;-72
2022/09/01 00:42:23;;;;;;;0.28;0.20;;;;;;;18.15;56.55;99839.53;6318810;28;20036;-72
2022/09/01 00:45:26;;;;;;;0.15;0.15;;;;;;;18.17;56.14;99833.09;6318711;28;20047;-72
2022/09/01 00:48:26;;;;;;;51.42;2.85;;;;;;;18.09;56.31;99838.28;6301682;28;20055;-72
2022/09/01 00:51:28;;;;;;;7.78;0.70;;;;;;;18.15;57.12;99840.34;6319942;28;20116;-71
2022/09/01 00:54:36;;;;;;;0.73;0.32;;;;;;;18.12;56.18;99828.28;6301784;28;20048;-72
2022/09/01 00:57:39;;;;;;;2.17;0.70;;;;;;;18.10;55.84;99838.16;6319711;28;20044;-72
2022/09/01 01:00:42;;;;;;;0.60;0.30;;;;;;;18.16;55.76;99833.25;6319824;28;20040;-71
2022/09/01 01:03:46;;;;;;;1.00;0.47;;;;;;;18.00;55.34;99823.34;6319714;28;20036;-72
2022/09/01 01:07:01;;;;;;;0.77;0.30;;;;;;;18.12;55.22;99830.09;6318510;28;20040;-72
2022/09/01 01:10:05;;;;;;;2.05;0.45;;;;;;;18.16;54.86;99833.25;6304907;28;20044;-72
2022/09/01 01:13:12;;;;;;;0.70;0.45;;;;;;;18.10;54.64;99829.41;6306205;28;20058;-73
2022/09/01 01:16:14;;;;;;;3.22;0.30;;;;;;;18.03;55.13;99826.50;6322847;28;20043;-72
2022/09/01 01:23:23;;;;;;;0.35;0.35;;;;;;;18.05;54.87;99836.91;6324036;28;20036;-73
2022/09/01 01:26:25;;;;;;;0.82;0.30;;;;;;;18.00;55.53;99834.72;6322300;28;20114;-72
2022/09/01 01:29:31;;;;;;;0.73;0.52;;;;;;;17.91;55.44;99828.53;6323986;28;20044;-73
2022/09/01 01:32:32;;;;;;;0.40;0.35;;;;;;;17.90;55.25;99820.75;6322604;28;20055;-72
2022/09/01 01:35:33;;;;;;;0.20;0.20;;;;;;;17.84;55.46;99813.41;6323628;28;20059;-73
2022/09/01 01:38:34;;;;;;;1.17;0.70;;;;;;;17.80;55.41;99812.00;6323588;28;20578;-72
2022/09/01 01:41:39;;;;;;;0.45;0.22;;;;;;;17.82;55.95;99812.69;6322485;28;20039;-71
2022/09/01 01:44:41;;;;;;;0.40;0.35;;;;;;;17.74;55.55;99810.78;6322418;28;20064;-73
2022/09/01 01:47:46;;;;;;;2.33;0.60;;;;;;;17.79;55.78;99816.47;6323410;28;20052;-72
2022/09/01 01:50:48;;;;;;;2.55;0.73;;;;;;;17.70;55.71;99812.88;6322167;28;20470;-72
2022/09/01 01:53:51;;;;;;;0.73;0.30;;;;;;;17.89;54.85;99816.44;6322061;28;20040;-71
2022/09/01 01:56:52;;;;;;;0.65;0.55;;;;;;;17.84;54.82;99808.13;6323094;28;20048;-73
2022/09/01 01:59:53;;;;;;;0.35;0.35;;;;;;;17.83;55.54;99806.47;6321987;28;20075;-72
2022/09/01 02:02:54;;;;;;;0.65;0.55;;;;;;;17.71;55.51;99809.28;6323060;28;20488;-73
2022/09/01 02:05:55;;;;;;;0.60;0.43;;;;;;;17.76;55.14;99813.28;6322740;28;20047;-72
2022/09/01 02:09:02;;;;;;;0.57;0.50;;;;;;;17.65;54.98;99811.66;6321707;28;20407;-72
2022/09/01 02:12:03;;;;;;;1.83;0.50;;;;;;;17.72;54.40;99810.91;6321628;28;20040;-71
2022/09/01 02:15:06;;;;;;;1.27;0.52;;;;;;;17.77;54.72;99812.28;6321533;28;20089;-72
2022/09/01 02:18:07;;;;;;;0.50;0.40;;;;;;;17.72;54.87;99805.63;6322556;28;20044;-72
2022/09/01 02:21:10;;;;;;;0.60;0.47;;;;;;;17.71;55.50;99819.81;6320326;28;20399;-72
2022/09/01 02:24:11;;;;;;;0.68;0.40;;;;;;;17.67;55.45;99823.72;6321241;28;20055;-72
2022/09/01 02:27:20;;;;;;;0.40;0.30;;;;;;;17.63;55.42;99817.06;6321004;28;20061;-72
2022/09/01 02:30:22;;;;;;;0.38;0.30;;;;;;;17.77;55.31;99817.56;6321249;28;20484;-72
2022/09/01 02:33:24;;;;;;;0.40;0.30;;;;;;;17.69;55.26;99805.13;6322240;28;20087;-72
2022/09/01 02:36:27;;;;;;;1.45;0.55;;;;;;;17.67;55.68;99804.44;6321034;28;20040;-72
2022/09/01 02:39:35;;;;;;;1.30;0.45;;;;;;;17.69;55.02;99807.75;6320807;28;20598;-71
2022/09/01 02:42:42;;;;;;;0.30;0.28;;;;;;;17.67;55.92;99802.63;6322155;28;20055;-71
2022/09/01 02:45:43;;;;;;;1.27;0.47;;;;;;;17.67;55.12;99799.97;6320483;28;20044;-72
2022/09/01 02:48:44;;;;;;;0.30;0.30;;;;;;;17.66;55.22;99797.47;6322014;28;20050;-72
2022/09/01 02:51:52;;;;;;;0.73;0.40;;;;;;;17.47;55.46;99795.75;6321901;28;20051;-72
2022/09/01 02:54:54;;;;;;;0.68;0.40;;;;;;;17.47;55.43;99796.59;6320652;28;20387;-72
2022/09/01 02:57:55;;;;;;;4.72;0.45;;;;;;;17.49;55.66;99809.63;6321538;28;20136;-72
2022/09/01 03:00:56;;;;;;;3.65;0.50;;;;;;;17.39;55.65;99814.09;6320564;28;20040;-72
2022/09/01 03:04:04;;;;;;;13.75;1.08;;;;;;;17.38;55.45;99820.34;6321570;28;20044;-72
2022/09/01 03:07:07;;;;;;;2.00;0.70;;;;;;;17.25;56.46;99815.38;6321869;28;20463;-73
2022/09/01 03:10:08;;;;;;;3.50;0.45;;;;;;;17.33;56.27;99823.41;6320376;28;20075;-73
2022/09/01 03:13:20;;;;;;;0.75;0.73;;;;;;;17.35;56.29;99818.00;6321510;28;20075;-73
2022/09/01 03:16:21;;;;;;;4.30;1.23;;;;;;;17.39;56.59;99824.66;6320187;28;20048;-73
2022/09/01 03:19:22;;;;;;;0.08;0.08;;;;;;;17.35;55.90;99820.63;6320194;28;20492;-73
2022/09/01 03:22:23;;;;;;;0.03;0.03;;;;;;;17.38;55.59;99818.56;6320103;28;20036;-73
2022/09/01 03:25:24;;;;;;;2.95;1.35;;;;;;;17.32;56.72;99817.31;6319907;28;20040;-73
2022/09/01 03:28:26;;;;;;;0.28;0.20;;;;;;;17.27;56.82;99808.16;6321215;28;20039;-73
2022/09/01 03:31:27;;;;;;;0.52;0.28;;;;;;;17.27;56.18;99808.16;6320807;28;20399;-72
2022/09/01 03:34:28;;;;;;;0.10;0.10;;;;;;;17.24;56.57;99808.47;6321137;28;20048;-72
2022/09/01 03:37:32;;;;;;;0.40;0.40;;;;;;;17.31;56.30;99809.53;6319753;28;20055;-73
2022/09/01 03:40:35;;;;;;;0.00;0.00;;;;;;;17.28;56.22;99799.28;6319705;28;20040;-72
2022/09/01 03:43:35;;;;;;;0.10;0.10;;;;;;;17.24;57.16;99790.84;6319575;28;20042;-72
2022/09/01 03:46:36;;;;;;;0.38;0.20;;;;;;;17.23;56.80;99791.78;6319466;28;20036;-72
2022/09/01 03:49:38;;;;;;;0.75;0.30;;;;;;;17.25;57.64;99802.19;6319569;28;20476;-72
2022/09/01 03:52:40;;;;;;;0.00;0.00;;;;;;;17.24;57.70;99798.75;6319581;28;20046;-72
2022/09/01 03:55:44;;;;;;;0.05;0.03;;;;;;;17.17;57.62;99802.91;6319482;28;20055;-71
2022/09/01 03:58:45;;;;;;;0.00;0.00;;;;;;;17.10;57.84;99801.81;6320418;28;20377;-72
2022/09/01 04:01:46;;;;;;;0.10;0.10;;;;;;;17.19;58.32;99806.22;6319461;28;20044;-72
2022/09/01 04:04:47;;;;;;;0.13;0.13;;;;;;;17.11;58.31;99804.31;6319316;28;20064;-72
2022/09/01 04:07:49;;;;;;;0.00;0.00;;;;;;;17.11;58.44;99808.75;6320557;28;20044;-72
2022/09/01 04:10:54;;;;;;;0.90;0.30;;;;;;;16.98;59.63;99818.75;6320422;28;20044;-72
2022/09/01 04:13:55;;;;;;;0.47;0.30;;;;;;;17.03;59.61;99816.56;6320449;28;20085;-71
2022/09/01 04:20:25;;;;;;;0.20;0.20;;;;;;;17.13;60.73;99809.44;6289045;28;20064;-71
2022/09/01 04:23:30;;;;;;;0.30;0.30;;;;;;;17.12;60.93;99820.97;6320342;28;20170;-71
2022/09/01 04:26:32;;;;;;;0.13;0.13;;;;;;;17.04;60.36;99826.94;6319029;28;20484;-71
2022/09/01 04:29:33;;;;;;;0.03;0.00;;;;;;;17.04;61.30;99831.38;6320194;28;20040;-70
2022/09/01 04:32:37;;;;;;;0.15;0.10;;;;;;;17.10;62.55;99828.19;6320106;28;20515;-71
2022/09/01 04:35:39;;;;;;;0.00;0.00;;;;;;;17.05;61.25;99823.34;6320383;28;20080;-71
2022/09/01 04:38:39;;;;;;;0.22;0.17;;;;;;;17.03;61.18;99798.94;6320123;28;20055;-71
2022/09/01 04:41:44;;;;;;;0.00;0.00;;;;;;;16.89;62.00;99799.38;6320202;28;20048;-72
2022/09/01 04:44:45;;;;;;;0.13;0.13;;;;;;;16.85;62.69;99801.44;6320940;28;20142;-71
2022/09/01 04:47:47;;;;;;;0.00;0.00;;;;;;;16.80;62.33;99793.09;6324549;28;20157;-72
2022/09/01 04:50:48;;;;;;;0.25;0.10;;;;;;;16.76;62.65;99799.63;6323527;28;20051;-72
2022/09/01 04:53:49;;;;;;;0.30;0.20;;;;;;;16.70;63.26;99810.72;6324803;28;20530;-72
2022/09/01 04:56:53;;;;;;;3.28;0.17;;;;;;;16.60;62.76;99823.88;6324631;28;20092;-71
2022/09/01 04:59:57;;;;;;;0.28;0.17;;;;;;;16.69;62.67;99819.56;6323416;28;20044;-72
2022/09/01 05:03:03;;;;;;;0.30;0.30;;;;;;;16.80;63.04;99818.59;6306253;28;20389;-72
2022/09/01 05:06:13;;;;;;;0.70;0.15;;;;;;;16.69;62.66;99811.69;6323349;28;20293;-72
2022/09/01 05:09:18;;;;;;;0.00;0.00;;;;;;;16.79;63.38;99806.41;6306389;28;20522;-71
2022/09/01 05:12:21;;;;;;;0.17;0.15;;;;;;;16.75;62.46;99805.03;6324499;28;20044;-71
2022/09/01 05:15:22;;;;;;;0.43;0.20;;;;;;;16.73;63.10;99818.31;6322756;28;20048;-71
2022/09/01 05:18:23;;;;;;;0.05;0.05;;;;;;;16.69;64.18;99806.41;6322879;28;20399;-71
2022/09/01 05:21:25;;;;;;;0.10;0.10;;;;;;;16.67;63.69;99808.34;6323944;28;20040;-71
2022/09/01 05:24:29;;;;;;;0.00;0.00;;;;;;;16.66;63.31;99814.59;6324008;28;20123;-72
2022/09/01 05:27:30;;;;;;;0.60;0.50;;;;;;;16.69;64.09;99816.94;6323845;28;20047;-71
2022/09/01 05:30:35;;;;;;;0.30;0.10;;;;;;;16.67;65.07;99826.78;6322543;28;20036;-73
2022/09/01 05:33:38;;;;;;;0.35;0.10;;;;;;;16.72;63.89;99825.41;6322404;28;20475;-71
2022/09/01 05:36:44;;;;;;;2.38;0.20;;;;;;;16.75;64.56;99824.28;6323705;28;20508;-71
2022/09/01 05:39:45;;;;;;;0.10;0.10;;;;;;;16.73;65.22;99824.44;6305413;28;20113;-73
2022/09/01 05:42:49;;;;;;;0.47;0.25;;;;;;;16.61;65.29;99817.63;6323595;28;20377;-72
2022/09/01 05:45:50;;;;;;;0.30;0.30;;;;;;;16.70;64.86;99821.25;6323437;28;20068;-72
2022/09/01 05:48:52;;;;;;;0.10;0.10;;;;;;;16.68;65.44;99818.75;6322134;28;20044;-72
2022/09/01 05:51:54;;;;;;;;;;;;;;;16.72;65.24;99820.13;6305531;28;20190;-72
2022/09/01 05:54:59;;;;;;;0.00;0.00;;;;;;;16.57;66.89;99818.88;6322971;28;19927;-73
2022/09/01 05:58:00;;;;;;;0.25;0.25;;;;;;;16.37;70.49;99823.31;6323513;28;20040;-71
2022/09/01 06:01:04;;;;;;;0.28;0.17;;;;;;;16.32;73.63;99814.97;6321803;28;20062;-72
2022/09/01 06:04:07;;;;;;;0.00;0.00;;;;;;;16.10;80.13;99822.16;6321793;28;20484;-72
2022/09/01 06:07:13;;;;;;;0.00;0.00;;;;;;;16.10;80.49;99814.25;6321579;28;20056;-71
2022/09/01 06:10:16;;;;;;;0.10;0.10;;;;;;;16.02;85.19;99814.09;6321820;28;20113;-71
2022/09/01 06:13:20;;;;;;;0.20;0.20;;;;;;;16.01;87.75;99809.78;6322898;28;20051;-71
2022/09/01 06:16:23;;;;;;;0.10;0.10;;;;;;;15.93;85.32;99801.72;6321564;28;20503;-71
2022/09/01 06:19:24;;;;;;;0.20;0.20;;;;;;;15.77;88.06;99796.97;6321456;28;20053;-72
2022/09/01 06:22:26;;;;;;;0.15;0.15;;;;;;;15.91;87.74;99798.41;6321423;28;20044;-71
2022/09/01 06:25:29;;;;;;;0.90;0.43;;;;;;;15.89;85.62;99792.44;6322525;28;20480;-71
2022/09/01 06:28:30;;;;;;;0.50;0.35;;;;;;;15.98;84.68;99799.53;6321126;28;20051;-71
2022/09/01 06:31:33;;;;;;;0.13;0.10;;;;;;;16.18;83.87;99803.03;6322397;28;20040;-72
2022/09/01 06:34:37;;;;;;;0.00;0.00;;;;;;;16.32;82.37;99807.06;6320785;28;20109;-71
2022/09/01 06:37:38;;;;;;;0.25;0.25;;;;;;;16.46;83.01;99805.84;6322313;28;20044;-71
2022/09/01 06:40:41;;;;;;;0.75;0.40;;;;;;;16.61;84.37;99808.91;6320782;28;20052;-72
2022/09/01 06:43:43;;;;;;;0.68;0.40;;;;;;;16.56;81.08;99821.66;6322151;28;20078;-72
2022/09/01 06:46:44;;;;;;;2.50;0.77;;;;;;;16.63;77.82;99817.50;6304163;28;20047;-72
2022/09/01 06:49:44;;;;;;;0.80;0.25;;;;;;;16.62;75.83;99819.31;6322004;28;20048;-72
2022/09/01 06:52:45;;;;;;;0.30;0.22;;;;;;;16.70;75.22;99810.72;6321971;28;20044;-72
2022/09/01 06:55:49;;;;;;;0.10;0.10;;;;;;;16.99;76.48;99815.16;6321812;28;20506;-71
2022/09/01 06:58:53;;;;;;;0.50;0.40;;;;;;;16.93;73.74;99824.47;6321811;28;20040;-71
2022/09/01 07:02:00;;;;;;;0.40;0.32;;;;;;;17.00;73.71;99828.19;6321673;28;20036;-72
2022/09/01 07:05:01;;;;;;;0.00;0.00;;;;;;;17.10;74.62;99821.09;6321648;28;20040;-71
2022/09/01 07:08:06;;;;;;;0.08;0.08;;;;;;;17.02;72.66;99817.50;6320821;28;20093;-71
2022/09/01 07:11:16;;;;;;;1.25;0.38;;;;;;;17.17;71.52;99813.44;6320161;28;20043;-72
2022/09/01 07:14:18;;;;;;;0.20;0.20;;;;;;;17.15;71.14;99820.66;6321432;28;20499;-71
2022/09/01 07:17:23;;;;;;;0.82;0.13;;;;;;;17.08;70.01;99830.13;6321447;28;20450;-72
2022/09/01 07:20:27;;;;;;;1.75;0.45;;;;;;;17.08;71.01;99830.13;6319848;28;20165;-72
2022/09/01 07:23:28;;;;;;;0.50;0.40;;;;;;;17.14;69.71;99820.84;6321248;28;20043;-72
2022/09/01 07:26:30;;;;;;;0.28;0.20;;;;;;;17.02;69.86;99828.06;6321072;28;20396;-72
2022/09/01 07:29:31;;;;;;;0.38;0.20;;;;;;;17.15;69.92;99831.22;6319912;28;20385;-72
2022/09/01 07:32:32;;;;;;;1.88;0.77;;;;;;;17.14;70.84;99829.56;6320924;28;20044;-71
2022/09/01 07:35:39;;;;;;;0.50;0.20;;;;;;;17.12;67.88;99829.69;6319470;28;20052;-72
2022/09/01 07:38:41;;;;;;;0.15;0.10;;;;;;;17.18;70.07;99828.31;6319681;28;20046;-72
2022/09/01 07:41:43;;;;;;;0.15;0.10;;;;;;;17.21;68.60;99825.38;6319530;28;20346;-72
2022/09/01 07:44:44;;;;;;;0.33;0.23;;;;;;;17.24;69.91;99826.91;6319531;28;20040;-72
2022/09/01 07:47:45;;;;;;;0.90;0.40;;;;;;;17.27;69.68;99821.34;6319335;28;20326;-72
2022/09/01 07:50:48;;;;;;;0.10;0.10;;;;;;;17.20;68.19;99818.44;6319369;28;20480;-72
2022/09/01 07:53:49;;;;;;;0.25;0.15;;;;;;;17.24;70.82;99813.75;6321063;28;20040;-71
2022/09/01 07:56:50;;;;;;;0.00;0.00;;;;;;;17.38;70.29;99822.97;6319405;28;20036;-71
2022/09/01 07:59:54;;;;;;;0.10;0.03;;;;;;;17.44;72.17;99835.59;6320465;28;20040;-72
2022/09/01 08:02:54;;;;;;;0.65;0.20;;;;;;;17.52;72.70;99839.19;6320424;28;20047;-72
2022/09/01 08:06:02;;;;;;;0.00;0.00;;;;;;;17.75;71.83;99849.41;6320458;28;20040;-71
2022/09/01 08:09:06;;;;;;;0.10;0.10;;;;;;;17.80;74.51;99857.69;6319168;28;20138;-72
2022/09/01 08:12:07;;;;;;;0.10;0.08;;;;;;;17.97;76.33;99850.03;6319032;28;20036;-72
2022/09/01 08:15:11;;;;;;;0.15;0.15;;;;;;;18.03;74.86;99844.16;6302199;28;20063;-72
2022/09/01 08:18:12;;;;;;;0.40;0.30;;;;;;;18.09;73.14;99843.56;6322427;28;20079;-72
2022/09/01 08:21:15;;;;;;;0.30;0.22;;;;;;;18.29;75.56;99842.47;6325325;28;20043;-72
2022/09/01 08:24:16;;;;;;;1.98;0.25;;;;;;;18.19;70.83;99840.88;6324063;28;20459;-71
2022/09/01 08:27:16;;;;;;;0.30;0.28;;;;;;;18.26;68.95;99842.78;6324049;28;20040;-72
2022/09/01 08:30:17;;;;;;;0.20;0.10;;;;;;;18.26;66.88;99844.56;6325387;28;20044;-72
2022/09/01 08:33:20;;;;;;;0.35;0.20;;;;;;;18.35;66.45;99838.41;6323846;28;20487;-72
2022/09/01 08:36:23;;;;;;;0.52;0.30;;;;;;;18.35;65.10;99837.59;6323823;28;20476;-72
2022/09/01 08:39:25;;;;;;;0.15;0.15;;;;;;;18.66;65.99;99822.22;6324033;28;20078;-72
2022/09/01 08:42:47;;;;;;;0.10;0.10;;;;;;;18.76;62.19;99822.09;6323958;28;20062;-71
2022/09/01 08:45:52;;;;;;;0.10;0.10;;;;;;;19.01;65.22;99831.94;6323620;28;20296;-71
2022/09/01 08:49:10;;;;;;;0.17;0.17;;;;;;;19.20;61.28;99830.94;6306829;28;20079;-71
2022/09/01 08:52:31;;;;;;;0.20;0.10;;;;;;;19.29;59.40;99831.81;6323577;28;20708;-72
2022/09/01 08:55:55;;;;;;;0.20;0.10;;;;;;;19.64;60.60;99824.72;6323678;28;20123;-72
2022/09/01 08:58:57;;;;;;;0.90;0.20;;;;;;;19.87;58.79;99823.22;6324634;28;20510;-72
2022/09/01 09:02:10;;;;;;;0.55;0.17;;;;;;;19.97;61.61;99822.25;6306373;28;20066;-72
2022/09/01 09:05:56;;;;;;;0.38;0.38;;;;;;;20.11;60.04;99816.34;6324445;28;20044;-72
2022/09/01 09:09:06;;;;;;;0.10;0.10;;;;;;;20.11;57.31;99808.41;6323218;28;20065;-72
2022/09/01 09:12:25;;;;;;;0.20;0.20;;;;;;;20.28;57.38;99804.81;6306176;28;20516;-72
2022/09/01 09:15:31;;;;;;;0.10;0.10;;;;;;;20.56;58.84;99811.66;6322919;28;20135;-72
2022/09/01 09:19:06;;;;;;;0.22;0.22;;;;;;;20.90;57.43;99809.72;6324179;28;20043;-72
2022/09/01 09:22:13;;;;;;;0.82;0.38;;;;;;;20.95;56.75;99805.72;6291781;28;20048;-72
2022/09/01 09:25:17;;;;;;;0.85;0.30;;;;;;;21.02;56.17;99815.47;6324217;28;20064;-72
2022/09/01 09:28:17;;;;;;;0.38;0.20;;;;;;;20.91;54.13;99807.88;6322725;28;20145;-72
2022/09/01 09:31:41;;;;;;;0.23;0.23;;;;;;;20.72;56.13;99806.41;6323187;28;20488;-72
2022/09/01 09:34:42;;;;;;;0.85;0.47;;;;;;;20.62;55.14;99803.06;6323716;28;20058;-72
2022/09/01 09:37:51;;;;;;;0.73;0.20;;;;;;;20.38;53.87;99806.47;6322441;28;20465;-72
2022/09/01 09:40:59;;;;;;;0.55;0.40;;;;;;;20.50;54.40;99807.84;6323691;28;20381;-72
2022/09/01 09:44:02;;;;;;;0.20;0.20;;;;;;;20.61;53.57;99804.91;6305360;28;20134;-73
2022/09/01 09:47:03;;;;;;;0.90;0.30;;;;;;;20.66;55.21;99812.34;6322330;28;20051;-72
2022/09/01 09:50:21;;;;;;;0.30;0.10;;;;;;;20.90;53.88;99815.00;6323458;28;20074;-72
2022/09/01 09:53:33;;;;;;;0.60;0.32;;;;;;;20.78;52.72;99813.69;6322161;28;20089;-72
2022/09/01 09:56:36;;;;;;;2.55;0.20;;;;;;;20.91;52.06;99811.34;6305099;28;20044;-72
2022/09/01 09:59:41;;;;;;;0.30;0.30;;;;;;;20.91;52.09;99813.19;6321952;28;20139;-72
2022/09/01 10:02:45;;;;;;;0.28;0.28;;;;;;;20.80;53.15;99816.19;6323012;28;20044;-72
2022/09/01 10:05:50;;;;;;;0.40;0.38;;;;;;;20.82;54.99;99822.97;6322969;28;20040;-72
2022/09/01 10:08:51;;;;;;;0.47;0.45;;;;;;;20.71;53.67;99823.28;6322071;28;20089;-72
2022/09/01 10:11:56;;;;;;;0.40;0.23;;;;;;;20.47;51.84;99830.19;6322993;28;20043;-72
2022/09/01 10:15:07;;;;;;;0.60;0.32;;;;;;;20.57;52.45;99839.81;6322997;28;20327;-71
2022/09/01 10:18:13;;;;;;;0.20;0.20;;;;;;;20.29;53.11;99827.66;6322897;28;20093;-72
2022/09/01 10:21:22;;;;;;;0.10;0.10;;;;;;;20.41;53.04;99822.91;6322699;28;20405;-72
2022/09/01 10:24:34;;;;;;;0.20;0.20;;;;;;;20.43;52.99;99825.38;6321439;28;20127;-72
2022/09/01 10:27:39;;;;;;;0.32;0.20;;;;;;;20.47;53.96;99824.91;6322456;28;20445;-73
2022/09/01 10:30:44;;;;;;;0.68;0.30;;;;;;;20.26;55.45;99828.00;6322413;28;20044;-72
2022/09/01 10:33:46;;;;;;;0.85;0.40;;;;;;;20.36;56.22;99827.84;6320889;28;20072;-72
2022/09/01 10:36:48;;;;;;;0.10;0.10;;;;;;;20.39;56.26;99827.53;6321023;28;20067;-72
2022/09/01 10:40:09;;;;;;;1.45;0.50;;;;;;;20.46;55.03;99833.00;6321077;28;20415;-72
2022/09/01 10:43:34;;;;;;;0.75;0.40;;;;;;;20.36;53.62;99841.09;6320118;28;20036;-72
2022/09/01 10:46:35;;;;;;;0.45;0.38;;;;;;;20.51;54.47;99838.66;6320616;28;20051;-72
2022/09/01 10:50:23;;;;;;;1.43;0.53;;;;;;;20.29;53.51;99840.91;6320827;28;20043;-73
2022/09/01 10:53:33;;;;;;;0.13;0.13;;;;;;;20.31;53.81;99833.63;6301921;28;20063;-71
2022/09/01 10:56:45;;;;;;;1.58;0.57;;;;;;;20.24;53.49;99835.28;6321906;28;20043;-71
2022/09/01 10:59:46;;;;;;;0.15;0.10;;;;;;;20.37;54.31;99844.59;6320515;28;20052;-71
2022/09/01 11:03:12;;;;;;;1.23;0.70;;;;;;;20.25;53.77;99842.22;6320463;28;20064;-72
2022/09/01 11:06:42;;;;;;;0.55;0.30;;;;;;;20.13;53.37;99839.03;6321541;28;20447;-71
2022/09/01 11:10:09;;;;;;;0.20;0.20;;;;;;;20.24;53.34;99847.69;6320166;28;20083;-73
2022/09/01 11:13:14;;;;;;;0.50;0.35;;;;;;;20.17;53.89;99839.56;6320086;28;20055;-72
2022/09/01 11:16:33;;;;;;;0.10;0.08;;;;;;;20.36;52.89;99846.38;6321341;28;20050;-71
2022/09/01 11:20:09;;;;;;;0.22;0.17;;;;;;;20.35;53.06;99841.28;6321316;28;20071;-72
2022/09/01 11:23:24;;;;;;;0.10;0.00;;;;;;;20.57;53.44;99838.00;6301232;28;20436;-72
2022/09/01 11:26:34;;;;;;;0.63;0.20;;;;;;;20.63;53.82;99845.34;6303080;28;20040;-72
2022/09/01 11:29:57;;;;;;;0.30;0.30;;;;;;;20.70;53.62;99846.31;6321134;28;20040;-71
2022/09/01 11:33:26;;;;;;;0.38;0.32;;;;;;;20.75;53.60;99842.34;6319718;28;20399;-71
2022/09/01 11:36:34;;;;;;;0.10;0.10;;;;;;;20.64;54.05;99830.25;6320774;28;20518;-72
2022/09/01 11:40:05;;;;;;;0.10;0.10;;;;;;;20.85;52.86;99827.94;6320924;28;20040;-72
2022/09/01 11:43:12;;;;;;;0.25;0.10;;;;;;;20.72;52.08;99817.00;6318267;28;20056;-72
2022/09/01 11:46:23;;;;;;;0.20;0.20;;;;;;;20.75;51.51;99819.31;6302617;28;20058;-72
2022/09/01 11:49:45;;;;;;;2.63;0.68;;;;;;;20.99;51.68;99821.13;6319411;28;20040;-72
2022/09/01 11:53:02;;;;;;;0.35;0.35;;;;;;;20.97;51.16;99817.00;6318998;28;20047;-71
2022/09/01 11:56:24;;;;;;;0.38;0.30;;;;;;;21.00;52.01;99820.16;6320498;28;20048;-71
2022/09/01 11:59:36;;;;;;;0.20;0.20;;;;;;;21.05;51.66;99809.03;6319166;28;20044;-71
2022/09/01 12:02:49;;;;;;;2.75;0.40;;;;;;;21.22;52.56;99799.22;6302518;28;20449;-71
2022/09/01 12:06:06;;;;;;;0.75;0.40;;;;;;;21.29;52.06;99805.50;6319028;28;20340;-71
2022/09/01 12:09:09;;;;;;;0.47;0.28;;;;;;;21.22;51.35;99804.53;6319209;28;20047;-72
2022/09/01 12:12:28;;;;;;;0.73;0.28;;;;;;;21.36;50.57;99797.72;6318913;28;20060;-72
2022/09/01 12:15:29;;;;;;;0.20;0.20;;;;;;;21.43;51.24;99793.41;6320229;28;20048;-71
2022/09/01 12:18:39;;;;;;;0.10;0.10;;;;;;;21.46;49.56;99793.06;6318871;28;20052;-71
2022/09/01 12:21:42;;;;;;;0.03;0.03;;;;;;;21.54;49.00;99795.69;6320280;28;20040;-72
2022/09/01 12:24:50;;;;;;;0.57;0.30;;;;;;;21.57;49.77;99797.19;6302059;28;20063;-70
2022/09/01 12:27:52;;;;;;;0.20;0.20;;;;;;;21.60;47.62;99786.22;6302245;28;20527;-70
2022/09/01 12:30:54;;;;;;;1.73;0.38;;;;;;;21.69;46.83;99788.66;6318879;28;20048;-70
2022/09/01 12:33:55;;;;;;;0.20;0.10;;;;;;;21.79;46.49;99793.78;6318775;28;20063;-71
2022/09/01 12:37:14;;;;;;;0.20;0.20;;;;;;;21.79;45.54;99793.78;6301916;28;20048;-71
2022/09/01 12:40:30;;;;;;;0.20;0.15;;;;;;;21.92;45.15;99795.88;6318887;28;20037;-71
2022/09/01 12:43:31;;;;;;;0.17;0.10;;;;;;;21.97;44.66;99795.34;6320458;28;20047;-72
2022/09/01 12:46:44;;;;;;;0.67;0.30;;;;;;;22.13;46.41;99796.09;6301807;28;20048;-71
2022/09/01 12:49:46;;;;;;;0.57;0.30;;;;;;;22.20;45.08;99803.38;6318610;28;20255;-73
2022/09/01 12:52:50;;;;;;;0.20;0.20;;;;;;;22.29;44.08;99799.69;6318690;28;20040;-72
2022/09/01 12:56:05;;;;;;;0.13;0.10;;;;;;;22.24;45.85;99802.06;6318456;28;20048;-72
2022/09/01 12:59:13;;;;;;;0.13;0.13;;;;;;;22.26;44.29;99797.41;6318588;28;20048;-72
2022/09/01 13:02:33;;;;;;;0.52;0.38;;;;;;;22.23;45.95;99787.91;6319711;28;20040;-73
2022/09/01 13:05:40;;;;;;;0.32;0.32;;;;;;;22.38;44.36;99798.63;6320922;28;20043;-72
2022/09/01 13:08:42;;;;;;;0.40;0.38;;;;;;;22.47;46.13;99791.44;6324517;28;20040;-74
2022/09/01 13:11:46;;;;;;;1.52;0.30;;;;;;;22.30;45.22;99782.75;6306083;28;20052;-72
2022/09/01 13:14:47;;;;;;;1.80;0.43;;;;;;;22.20;45.38;99790.09;6324225;28;20086;-72
2022/09/01 13:17:51;;;;;;;0.47;0.40;;;;;;;22.24;45.97;99791.44;6324283;28;20044;-72
2022/09/01 13:20:52;;;;;;;1.65;0.50;;;;;;;22.30;45.87;99796.03;6324084;28;20055;-72
2022/09/01 13:23:53;;;;;;;0.35;0.20;;;;;;;22.30;45.63;99799.53;6322825;28;20047;-72
2022/09/01 13:26:56;;;;;;;0.67;0.50;;;;;;;22.21;46.26;99797.03;6322561;28;20074;-71
2022/09/01 13:29:56;;;;;;;0.75;0.40;;;;;;;22.23;46.06;99795.03;6323962;28;20679;-71
2022/09/01 13:32:58;;;;;;;0.30;0.20;;;;;;;22.07;46.08;99803.94;6322649;28;20097;-71
2022/09/01 13:36:01;;;;;;;0.70;0.40;;;;;;;22.04;46.13;99796.31;6322241;28;20293;-71
2022/09/01 13:39:02;;;;;;;0.80;0.45;;;;;;;22.04;45.58;99793.66;6322549;28;20044;-71
2022/09/01 13:42:03;;;;;;;0.40;0.30;;;;;;;22.20;45.33;99800.72;6322691;28;20128;-72
2022/09/01 13:45:05;;;;;;;0.23;0.23;;;;;;;22.02;45.57;99806.28;6305613;28;20048;-72
2022/09/01 13:48:06;;;;;;;;;;;;;;;22.08;45.85;99811.72;6322669;28;20421;-72
2022/09/01 13:51:09;;;;;;;0.20;0.20;;;;;;;22.21;46.01;99810.34;6323494;28;20173;-72
2022/09/01 13:54:10;;;;;;;0.35;0.20;;;;;;;22.16;44.26;99805.56;6322107;28;20449;-72
2022/09/01 13:57:15;;;;;;;0.93;0.40;;;;;;;22.18;45.52;99810.69;6322128;28;20043;-72
2022/09/01 14:00:19;;;;;;;0.75;0.55;;;;;;;22.07;44.62;99809.25;6323157;28;20403;-72
2022/09/01 14:03:22;;;;;;;0.43;0.28;;;;;;;22.09;45.61;99800.13;6323145;28;20040;-72
2022/09/01 14:06:25;;;;;;;0.82;0.50;;;;;;;21.96;44.71;99802.50;6304789;28;20051;-71
2022/09/01 14:09:28;;;;;;;1.20;0.60;;;;;;;22.01;45.28;99810.78;6323175;28;20466;-71
2022/09/01 14:12:29;;;;;;;1.02;0.60;;;;;;;22.09;45.15;99804.56;6322842;28;20486;-73
2022/09/01 14:15:30;;;;;;;0.68;0.40;;;;;;;22.07;45.56;99801.28;6321378;28;20403;-74
2022/09/01 14:18:35;;;;;;;0.20;0.20;;;;;;;22.16;45.89;99802.91;6322861;28;20128;-72
2022/09/01 14:21:36;;;;;;;0.75;0.47;;;;;;;22.02;45.24;99809.75;6321543;28;20044;-72
2022/09/01 14:24:37;;;;;;;0.63;0.57;;;;;;;22.09;46.30;99804.56;6321584;28;20044;-72
2022/09/01 14:27:38;;;;;;;0.30;0.30;;;;;;;22.00;46.24;99803.81;6304706;28;20048;-72
2022/09/01 14:30:41;;;;;;;0.40;0.40;;;;;;;21.98;46.21;99800.50;6322604;28;20047;-72
2022/09/01 14:33:43;;;;;;;2.75;0.57;;;;;;;21.97;45.74;99793.53;6304375;28;20051;-73
2022/09/01 14:36:48;;;;;;;0.30;0.30;;;;;;;22.04;46.11;99796.31;6320978;28;20134;-72
2022/09/01 14:39:53;;;;;;;7.90;0.68;;;;;;;22.02;46.67;99796.50;6322384;28;20123;-72
2022/09/01 14:42:54;;;;;;;1.08;0.40;;;;;;;22.03;46.73;99805.28;6320981;28;20040;-72